createdAt,value
2023-04-12T00:00:32.356Z,2.50
2023-04-12T00:03:04.716Z,2.60
2023-04-12T00:05:34.595Z,2.20
2023-04-12T00:08:05.173Z,2.43
2023-04-12T00:10:33.599Z,2.40
2023-04-12T00:13:02.212Z,2.67
2023-04-12T00:15:31.049Z,3.17
2023-04-12T00:17:59.449Z,2.70
2023-04-12T00:20:29.276Z,2.53
2023-04-12T00:22:58.062Z,2.73
2023-04-12T00:25:26.717Z,3.10
2023-04-12T00:27:55.300Z,2.70
2023-04-12T00:30:23.796Z,2.57
2023-04-12T00:32:53.111Z,2.63
2023-04-12T00:35:30.374Z,2.77
2023-04-12T00:38:02.953Z,2.53
2023-04-12T00:40:31.408Z,2.73
2023-04-12T00:42:59.730Z,2.80
2023-04-12T00:45:28.486Z,2.60
2023-04-12T00:47:57.598Z,2.70
2023-04-12T00:50:26.688Z,3.10
2023-04-12T00:52:56.761Z,3.00
2023-04-12T00:55:26.746Z,2.53
2023-04-12T00:57:55.383Z,2.97
2023-04-12T01:00:24.289Z,2.93
2023-04-12T01:02:53.743Z,3.40
2023-04-12T01:05:25.604Z,3.30
2023-04-12T01:08:06.240Z,2.70
2023-04-12T01:10:46.844Z,3.07
2023-04-12T01:13:27.958Z,2.60
2023-04-12T01:16:05.673Z,2.87
2023-04-12T01:18:40.912Z,2.90
2023-04-12T01:21:15.822Z,3.37
2023-04-12T01:24:22.539Z,3.53
2023-04-12T01:26:53.671Z,2.70
2023-04-12T01:29:28.649Z,3.90
2023-04-12T01:32:02.778Z,3.20
2023-04-12T01:34:34.706Z,3.27
2023-04-12T01:37:04.773Z,3.23
2023-04-12T01:39:35.201Z,2.93
2023-04-12T01:42:03.552Z,3.37
2023-04-12T01:44:33.327Z,3.50
2023-04-12T01:47:04.168Z,3.70
2023-04-12T01:49:41.432Z,4.03
2023-04-12T01:52:16.104Z,3.60
2023-04-12T01:54:46.173Z,3.27
2023-04-12T01:57:16.675Z,3.10
2023-04-12T01:59:48.981Z,3.93
2023-04-12T02:02:18.317Z,3.33
2023-04-12T02:04:48.338Z,3.60
2023-04-12T02:07:20.952Z,3.77
2023-04-12T02:09:49.701Z,3.83
2023-04-12T02:12:18.402Z,3.10
2023-04-12T02:14:51.940Z,3.73
2023-04-12T02:17:27.083Z,4.00
2023-04-12T02:19:55.839Z,4.23
2023-04-12T02:22:24.276Z,3.53
2023-04-12T02:24:53.226Z,4.00
2023-04-12T02:27:22.535Z,3.97
2023-04-12T02:29:52.978Z,3.83
2023-04-12T02:32:22.626Z,4.03
2023-04-12T02:34:52.929Z,4.00
2023-04-12T02:37:24.811Z,4.43
2023-04-12T02:39:56.856Z,4.30
2023-04-12T02:42:27.960Z,3.80
2023-04-12T02:44:58.020Z,4.23
2023-04-12T02:47:29.151Z,4.07
2023-04-12T02:49:58.831Z,4.33
2023-04-12T02:52:29.541Z,3.73
2023-04-12T02:54:59.517Z,4.33
2023-04-12T02:57:28.226Z,4.40
2023-04-12T02:59:58.703Z,4.10
2023-04-12T03:02:27.925Z,3.93
2023-04-12T03:04:59.610Z,4.37
2023-04-12T03:07:28.055Z,4.63
2023-04-12T03:09:57.032Z,3.97
2023-04-12T03:12:26.022Z,4.57
2023-04-12T03:14:55.208Z,4.53
2023-04-12T03:17:25.149Z,4.40
2023-04-12T03:19:54.539Z,4.10
2023-04-12T03:22:25.927Z,4.70
2023-04-12T03:24:55.611Z,4.00
2023-04-12T03:27:24.124Z,4.03
2023-04-12T03:29:53.179Z,4.03
2023-04-12T03:32:22.486Z,4.10
2023-04-12T03:34:52.566Z,4.07
2023-04-12T03:37:21.422Z,3.57
2023-04-12T03:39:50.146Z,3.37
2023-04-12T03:42:29.958Z,3.40
2023-04-12T03:45:01.321Z,3.40
2023-04-12T03:47:29.883Z,3.73
2023-04-12T03:52:39.610Z,3.77
2023-04-12T03:55:09.518Z,3.53
2023-04-12T03:57:37.934Z,4.00
2023-04-12T04:00:10.057Z,3.70
2023-04-12T04:02:38.680Z,3.83
2023-04-12T04:05:09.720Z,3.43
2023-04-12T04:07:40.803Z,3.77
2023-04-12T04:10:11.113Z,4.23
2023-04-12T04:12:39.477Z,3.90
2023-04-12T04:15:09.164Z,3.77
2023-04-12T04:17:37.598Z,4.23
2023-04-12T04:20:09.355Z,4.63
2023-04-12T04:22:38.378Z,4.10
2023-04-12T04:25:08.219Z,3.70
2023-04-12T04:27:38.604Z,4.10
2023-04-12T04:30:10.132Z,4.03
2023-04-12T04:32:38.698Z,4.40
2023-04-12T04:35:10.137Z,4.53
2023-04-12T04:37:40.819Z,4.23
2023-04-12T04:40:24.964Z,4.03
2023-04-12T04:42:55.971Z,4.37
2023-04-12T04:45:26.753Z,3.93
2023-04-12T04:47:55.838Z,4.53
2023-04-12T04:50:28.230Z,4.37
2023-04-12T04:52:57.219Z,4.00
2023-04-12T04:55:26.251Z,3.77
2023-04-12T04:57:54.973Z,3.80
2023-04-12T05:00:25.981Z,4.17
2023-04-12T05:02:55.080Z,4.23
2023-04-12T05:05:26.220Z,4.23
2023-04-12T05:07:55.296Z,4.27
2023-04-12T05:10:24.032Z,4.00
2023-04-12T05:12:52.804Z,3.70
2023-04-12T05:15:22.093Z,4.20
2023-04-12T05:17:51.222Z,3.60
2023-04-12T05:20:20.082Z,3.80
2023-04-12T05:22:50.099Z,3.83
2023-04-12T05:25:48.379Z,3.83
2023-04-12T05:28:17.993Z,3.57
2023-04-12T05:30:46.761Z,3.63
2023-04-12T05:33:15.944Z,3.50
2023-04-12T05:35:44.506Z,3.60
2023-04-12T05:38:15.287Z,3.33
2023-04-12T05:40:45.161Z,3.00
2023-04-12T05:43:13.718Z,3.43
2023-04-12T05:45:42.541Z,3.20
2023-04-12T05:48:11.178Z,3.57
2023-04-12T05:50:39.664Z,3.60
2023-04-12T05:53:08.302Z,3.00
2023-04-12T05:55:38.390Z,3.23
2023-04-12T05:58:07.210Z,3.27
2023-04-12T06:00:35.745Z,2.83
2023-04-12T06:03:04.806Z,3.43
2023-04-12T06:05:35.275Z,3.63
2023-04-12T06:08:05.403Z,3.07
2023-04-12T06:10:34.046Z,3.40
2023-04-12T06:13:03.766Z,3.33
2023-04-12T06:15:33.606Z,3.53
2023-04-12T06:18:02.423Z,3.53
2023-04-12T06:20:30.924Z,3.60
2023-04-12T06:22:59.333Z,3.80
2023-04-12T06:25:28.154Z,4.17
2023-04-12T06:27:57.146Z,3.60
2023-04-12T06:30:27.983Z,3.30
2023-04-12T06:32:56.660Z,3.40
2023-04-12T06:35:25.923Z,3.57
2023-04-12T06:37:55.168Z,3.40
2023-04-12T06:40:23.611Z,3.37
2023-04-12T06:42:52.691Z,3.20
2023-04-12T06:45:21.463Z,3.43
2023-04-12T06:47:52.676Z,3.40
2023-04-12T06:50:21.304Z,2.90
2023-04-12T06:52:50.238Z,3.73
2023-04-12T06:55:20.208Z,3.10
2023-04-12T06:57:52.125Z,3.20
2023-04-12T07:00:22.087Z,3.60
2023-04-12T07:02:52.753Z,3.80
2023-04-12T07:05:22.758Z,3.30
2023-04-12T07:07:52.509Z,3.43
2023-04-12T07:10:21.480Z,3.23
2023-04-12T07:12:50.109Z,2.90
2023-04-12T07:15:18.855Z,3.40
2023-04-12T07:17:47.277Z,3.07
2023-04-12T07:20:17.629Z,3.17
2023-04-12T07:22:46.337Z,3.50
2023-04-12T07:25:14.950Z,3.40
2023-04-12T07:27:43.301Z,4.00
2023-04-12T07:30:15.028Z,3.57
2023-04-12T07:32:43.592Z,4.20
2023-04-12T07:35:12.888Z,4.13
2023-04-12T07:37:43.108Z,3.90
2023-04-12T07:40:11.663Z,3.90
2023-04-12T07:42:40.105Z,3.90
2023-04-12T07:45:27.548Z,3.60
2023-04-12T07:47:56.180Z,3.83
2023-04-12T07:50:25.160Z,4.67
2023-04-12T07:52:55.028Z,4.60
2023-04-12T07:55:23.904Z,4.77
2023-04-12T07:57:53.043Z,4.50
2023-04-12T08:00:29.165Z,4.20
2023-04-12T08:02:58.437Z,4.23
2023-04-12T08:05:27.807Z,4.97
2023-04-12T08:08:00.132Z,4.30
2023-04-12T08:10:28.726Z,4.93
2023-04-12T08:12:57.925Z,4.90
2023-04-12T08:15:27.355Z,4.97
2023-04-12T08:17:56.237Z,4.60
2023-04-12T08:20:24.995Z,4.93
2023-04-12T08:22:55.019Z,5.03
2023-04-12T08:25:24.978Z,5.07
2023-04-12T08:27:53.679Z,4.87
2023-04-12T08:30:26.983Z,5.20
2023-04-12T08:32:56.236Z,4.60
2023-04-12T08:35:25.154Z,5.10
2023-04-12T08:37:53.466Z,5.17
2023-04-12T08:40:24.128Z,5.03
2023-04-12T08:42:55.185Z,5.43
2023-04-12T08:45:27.525Z,5.50
2023-04-12T08:47:56.568Z,5.00
2023-04-12T08:50:27.350Z,5.27
2023-04-12T08:52:57.777Z,5.20
2023-04-12T08:55:28.285Z,4.90
2023-04-12T08:57:58.609Z,5.60
2023-04-12T09:00:28.422Z,5.57
2023-04-12T09:02:57.617Z,5.00
2023-04-12T09:05:31.322Z,5.20
2023-04-12T09:08:00.211Z,5.30
2023-04-12T09:10:38.741Z,5.37
2023-04-12T09:13:08.099Z,5.07
2023-04-12T09:15:36.945Z,5.20
2023-04-12T09:18:08.517Z,4.90
2023-04-12T09:20:38.378Z,4.57
2023-04-12T09:23:21.575Z,4.53
2023-04-12T09:25:53.437Z,5.03
2023-04-12T09:28:28.846Z,4.77
2023-04-12T09:30:59.142Z,4.50
2023-04-12T09:33:36.613Z,4.50
2023-04-12T09:36:09.379Z,4.63
2023-04-12T09:38:39.492Z,5.30
2023-04-12T09:41:25.026Z,5.17
2023-04-12T09:43:56.694Z,5.67
2023-04-12T09:46:26.668Z,5.50
2023-04-12T09:48:59.172Z,5.30
2023-04-12T09:51:32.765Z,5.23
2023-04-12T09:54:03.889Z,5.93
2023-04-12T09:56:36.732Z,6.13
2023-04-12T09:59:07.761Z,5.60
2023-04-12T10:01:40.988Z,5.60
2023-04-12T10:04:11.033Z,6.17
2023-04-12T10:06:41.573Z,6.17
2023-04-12T10:09:10.118Z,5.87
2023-04-12T10:11:41.947Z,6.53
2023-04-12T10:14:12.174Z,6.20
2023-04-12T10:16:42.738Z,6.13
2023-04-12T10:19:14.539Z,5.90
2023-04-12T10:21:43.190Z,6.70
2023-04-12T10:24:12.260Z,6.27
2023-04-12T10:26:44.995Z,5.87
2023-04-12T10:29:27.773Z,5.90
2023-04-12T10:31:58.218Z,5.70
2023-04-12T10:34:29.794Z,5.80
2023-04-12T10:37:00.062Z,5.67
2023-04-12T10:39:43.702Z,5.53
2023-04-12T10:42:27.267Z,5.80
2023-04-12T10:44:59.640Z,5.30
2023-04-12T10:48:02.064Z,4.83
2023-04-12T10:50:33.107Z,5.50
2023-04-12T10:53:25.276Z,5.20
2023-04-12T10:55:54.228Z,5.13
2023-04-12T10:58:59.480Z,5.20
2023-04-12T11:01:29.213Z,5.90
2023-04-12T11:04:19.131Z,5.20
2023-04-12T11:07:01.858Z,5.00
2023-04-12T11:09:38.897Z,4.87
2023-04-12T11:12:15.884Z,4.50
2023-04-12T11:14:51.256Z,4.73
2023-04-12T11:17:28.059Z,4.97
2023-04-12T11:20:00.241Z,4.47
2023-04-12T11:22:31.182Z,4.57
2023-04-12T11:25:01.865Z,4.77
2023-04-12T11:27:33.100Z,4.50
2023-04-12T11:30:03.757Z,4.50
2023-04-12T11:32:34.178Z,4.50
2023-04-12T11:35:03.150Z,4.63
2023-04-12T11:37:32.887Z,4.33
2023-04-12T11:40:01.298Z,3.80
2023-04-12T11:42:30.478Z,4.07
2023-04-12T11:45:04.419Z,4.27
2023-04-12T11:47:36.847Z,4.27
2023-04-12T11:50:06.044Z,4.40
2023-04-12T11:52:35.853Z,3.77
2023-04-12T11:55:08.777Z,4.07
2023-04-12T11:57:37.263Z,3.80
2023-04-12T12:00:07.345Z,3.90
2023-04-12T12:02:43.696Z,4.67
2023-04-12T12:05:18.374Z,4.37
2023-04-12T12:07:47.046Z,3.70
2023-04-12T12:10:27.454Z,3.53
2023-04-12T12:13:05.455Z,3.83
2023-04-12T12:15:34.137Z,3.77
2023-04-12T12:18:04.022Z,3.60
2023-04-12T12:20:32.829Z,3.93
2023-04-12T12:23:01.370Z,3.37
2023-04-12T12:25:31.588Z,3.53
2023-04-12T12:28:00.224Z,3.70
2023-04-12T12:30:32.102Z,3.40
2023-04-12T12:33:00.799Z,3.40
2023-04-12T12:35:36.157Z,3.17
2023-04-12T12:38:09.001Z,3.30
2023-04-12T12:40:37.531Z,3.63
2023-04-12T12:43:07.677Z,3.13
2023-04-12T12:45:38.967Z,3.23
2023-04-12T12:48:10.433Z,3.50
2023-04-12T12:50:42.214Z,3.07
2023-04-12T12:53:11.449Z,2.80
2023-04-12T12:55:41.526Z,2.87
2023-04-12T12:58:10.338Z,2.70
2023-04-12T13:00:38.980Z,2.70
2023-04-12T13:03:07.969Z,2.50
2023-04-12T13:05:36.901Z,3.57
2023-04-12T13:08:07.543Z,3.13
2023-04-12T13:10:36.018Z,3.20
2023-04-12T13:13:04.930Z,2.77
2023-04-12T13:15:33.590Z,3.10
2023-04-12T13:18:02.365Z,2.73
2023-04-12T13:20:31.416Z,2.63
2023-04-12T13:23:00.665Z,2.30
2023-04-12T13:25:30.434Z,2.40
2023-04-12T13:27:58.847Z,2.70
2023-04-12T13:30:27.921Z,2.67
2023-04-12T13:32:56.507Z,2.80
2023-04-12T13:35:25.256Z,2.37
2023-04-12T13:37:53.733Z,2.83
2023-04-12T13:40:22.895Z,2.57
2023-04-12T13:42:53.081Z,2.73
2023-04-12T13:45:21.835Z,2.30
2023-04-12T13:47:50.323Z,2.30
2023-04-12T13:50:19.143Z,2.33
2023-04-12T13:52:47.588Z,2.23
2023-04-12T13:55:16.286Z,1.87
2023-04-12T13:57:44.676Z,2.03
2023-04-12T14:00:22.690Z,2.17
2023-04-12T14:02:51.831Z,1.90
2023-04-12T14:05:21.354Z,1.85
2023-04-12T14:07:50.233Z,1.52
2023-04-12T14:10:19.026Z,1.80
2023-04-12T14:12:47.371Z,1.90
2023-04-12T14:15:17.796Z,1.92
2023-04-12T14:17:46.707Z,1.67
2023-04-12T14:20:16.685Z,1.75
2023-04-12T14:22:47.915Z,1.63
2023-04-12T14:25:16.371Z,2.43
2023-04-12T14:27:45.976Z,1.90
2023-04-12T14:30:18.383Z,1.93
2023-04-12T14:32:47.989Z,2.03
2023-04-12T14:35:17.310Z,2.33
2023-04-12T14:37:46.839Z,1.83
2023-04-12T14:40:17.556Z,2.40
2023-04-12T14:42:46.638Z,2.27
2023-04-12T14:45:17.631Z,2.03
2023-04-12T14:47:46.053Z,2.33
2023-04-12T14:50:14.860Z,2.27
2023-04-12T14:52:43.465Z,2.17
2023-04-12T14:55:12.046Z,1.90
2023-04-12T14:57:41.467Z,1.97
2023-04-12T15:00:15.499Z,1.93
2023-04-12T15:02:49.546Z,1.73
2023-04-12T15:05:18.532Z,2.07
2023-04-12T15:07:48.519Z,1.87
2023-04-12T15:10:18.963Z,2.10
2023-04-12T15:12:57.106Z,1.93
2023-04-12T15:15:26.392Z,1.60
2023-04-12T15:17:59.422Z,1.70
2023-04-12T15:20:28.567Z,1.10
2023-04-12T15:22:57.527Z,1.40
2023-04-12T15:25:26.962Z,1.00
2023-04-12T15:27:56.119Z,1.02
2023-04-12T15:30:25.206Z,1.23
2023-04-12T15:32:55.233Z,1.33
2023-04-12T15:35:26.889Z,1.43
2023-04-12T15:37:56.756Z,1.60
2023-04-12T15:40:26.146Z,1.40
2023-04-12T15:42:55.666Z,1.80
2023-04-12T15:45:25.211Z,1.90
2023-04-12T15:47:55.357Z,1.53
2023-04-12T15:50:23.741Z,1.50
2023-04-12T15:52:55.378Z,1.47
2023-04-12T15:55:24.471Z,1.90
2023-04-12T15:57:54.218Z,2.13
2023-04-12T16:00:26.526Z,1.80
2023-04-12T16:02:57.533Z,2.23
2023-04-12T16:05:27.410Z,1.93
2023-04-12T16:07:56.905Z,2.13
2023-04-12T16:10:26.667Z,2.37
2023-04-12T16:12:56.597Z,1.87
2023-04-12T16:15:25.437Z,2.00
2023-04-12T16:17:56.418Z,2.07
2023-04-12T16:20:30.836Z,2.40
2023-04-12T16:22:59.781Z,1.83
2023-04-12T16:25:29.281Z,1.93
2023-04-12T16:28:02.317Z,1.90
2023-04-12T16:30:32.171Z,2.00
2023-04-12T16:33:05.307Z,2.43
2023-04-12T16:35:34.509Z,2.10
2023-04-12T16:38:04.612Z,2.33
2023-04-12T16:40:33.871Z,2.37
2023-04-12T16:43:03.323Z,2.00
2023-04-12T16:45:32.322Z,2.00
2023-04-12T16:48:03.151Z,2.23
2023-04-12T16:50:32.082Z,2.47
2023-04-12T16:53:01.715Z,2.73
2023-04-12T16:55:31.178Z,2.77
2023-04-12T16:58:00.221Z,2.53
2023-04-12T17:00:29.157Z,1.97
2023-04-12T17:02:58.514Z,2.30
2023-04-12T17:05:28.654Z,2.23
2023-04-12T17:07:57.520Z,2.23
2023-04-12T17:10:28.606Z,2.43
2023-04-12T17:12:58.765Z,2.10
2023-04-12T17:15:30.005Z,2.17
2023-04-12T17:18:04.321Z,2.20
2023-04-12T17:20:34.790Z,2.50
2023-04-12T17:23:04.329Z,2.60
2023-04-12T17:25:33.539Z,2.40
2023-04-12T17:28:05.662Z,2.20
2023-04-12T17:30:34.885Z,2.03
2023-04-12T17:33:03.420Z,2.10
2023-04-12T17:35:33.338Z,2.63
2023-04-12T17:38:01.776Z,2.50
2023-04-12T17:40:30.497Z,2.60
2023-04-12T17:42:58.917Z,2.93
2023-04-12T17:45:28.180Z,3.57
2023-04-12T17:47:56.580Z,3.30
2023-04-12T17:50:25.579Z,2.83
2023-04-12T17:52:56.921Z,3.27
2023-04-12T17:55:26.740Z,2.97
2023-04-12T17:58:00.626Z,3.87
2023-04-12T18:00:29.314Z,3.30
2023-04-12T18:02:58.153Z,3.33
2023-04-12T18:05:27.741Z,3.03
2023-04-12T18:07:58.257Z,3.40
2023-04-12T18:10:27.667Z,2.73
2023-04-12T18:12:56.539Z,2.83
2023-04-12T18:15:25.332Z,2.93
2023-04-12T18:17:53.978Z,3.13
2023-04-12T18:20:23.137Z,3.10
2023-04-12T18:22:51.723Z,3.43
2023-04-12T18:25:22.554Z,3.30
2023-04-12T18:27:52.548Z,3.17
2023-04-12T18:30:21.428Z,2.90
2023-04-12T18:32:50.369Z,3.20
2023-04-12T18:35:19.942Z,3.00
2023-04-12T18:37:48.922Z,3.00
2023-04-12T18:40:18.387Z,3.40
2023-04-12T18:42:48.239Z,3.10
2023-04-12T18:45:16.600Z,3.17
2023-04-12T18:47:45.067Z,3.00
2023-04-12T18:50:14.641Z,3.00
2023-04-12T18:52:43.488Z,2.73
2023-04-12T18:55:12.127Z,3.00
2023-04-12T18:57:40.508Z,3.77
2023-04-12T19:00:14.535Z,5.30
2023-04-12T19:02:43.716Z,4.10
2023-04-12T19:05:15.011Z,4.73
2023-04-12T19:07:43.469Z,4.80
2023-04-12T19:10:13.501Z,4.57
2023-04-12T19:12:41.951Z,4.57
2023-04-12T19:15:12.996Z,5.00
2023-04-12T19:17:42.019Z,5.17
2023-04-12T19:20:13.430Z,5.13
2023-04-12T19:22:42.230Z,4.70
2023-04-12T19:25:11.804Z,5.50
2023-04-12T19:27:43.153Z,5.60
2023-04-12T19:30:14.915Z,5.20
2023-04-12T19:32:43.561Z,6.50
2023-04-12T19:35:12.995Z,5.87
2023-04-12T19:37:41.813Z,5.60
2023-04-12T19:40:14.672Z,5.17
2023-04-12T19:42:44.510Z,4.37
2023-04-12T19:45:15.445Z,4.07
2023-04-12T19:47:45.498Z,3.53
2023-04-12T19:50:15.742Z,4.10
2023-04-12T19:52:45.214Z,3.33
2023-04-12T19:55:16.051Z,3.80
2023-04-12T19:57:45.096Z,3.10
2023-04-12T20:00:19.738Z,2.90
2023-04-12T20:02:50.493Z,3.00
2023-04-12T20:05:19.457Z,2.80
2023-04-12T20:07:48.168Z,2.60
2023-04-12T20:10:21.983Z,2.13
2023-04-12T20:12:52.580Z,2.40
2023-04-12T20:15:25.504Z,2.90
2023-04-12T20:17:54.041Z,2.40
2023-04-12T20:20:25.723Z,2.13
2023-04-12T20:22:54.240Z,2.30
2023-04-12T20:25:35.600Z,2.33
2023-04-12T20:28:04.909Z,2.33
2023-04-12T20:30:35.348Z,2.30
2023-04-12T20:33:04.846Z,2.10
2023-04-12T20:35:33.257Z,2.30
2023-04-12T20:38:01.846Z,2.30
2023-04-12T20:40:30.459Z,2.53
2023-04-12T20:42:59.078Z,2.10
2023-04-12T20:45:28.063Z,2.17
2023-04-12T20:47:59.343Z,2.03
2023-04-12T20:50:30.472Z,2.20
2023-04-12T20:52:59.339Z,1.83
2023-04-12T20:55:34.064Z,2.47
2023-04-12T20:58:03.677Z,1.80
2023-04-12T21:00:33.845Z,2.10
2023-04-12T21:03:04.241Z,2.00
2023-04-12T21:05:33.797Z,1.90
2023-04-12T21:08:02.707Z,2.40
2023-04-12T21:10:31.195Z,2.30
2023-04-12T21:13:02.054Z,2.23
2023-04-12T21:15:31.989Z,2.10
2023-04-12T21:18:00.436Z,2.20
2023-04-12T21:20:31.047Z,2.80
2023-04-12T21:22:59.474Z,2.00
2023-04-12T21:25:28.300Z,2.10
2023-04-12T21:27:56.921Z,2.30
2023-04-12T21:30:25.559Z,2.23
2023-04-12T21:32:54.397Z,2.30
2023-04-12T21:35:23.507Z,2.10
2023-04-12T21:37:53.745Z,2.00
2023-04-12T21:40:23.000Z,2.10
2023-04-12T21:42:51.713Z,1.97
2023-04-12T21:45:21.511Z,2.10
2023-04-12T21:47:50.537Z,2.37
2023-04-12T21:50:18.966Z,2.80
2023-04-12T21:52:47.897Z,2.60
2023-04-12T21:55:18.745Z,2.80
2023-04-12T21:57:47.335Z,3.27
2023-04-12T22:00:18.496Z,2.77
2023-04-12T22:02:47.617Z,2.57
2023-04-12T22:05:16.362Z,2.77
2023-04-12T22:07:45.402Z,2.70
2023-04-12T22:10:13.961Z,2.93
2023-04-12T22:12:50.546Z,2.70
2023-04-12T22:15:19.830Z,2.83
2023-04-12T22:17:48.418Z,3.13
2023-04-12T22:20:16.925Z,2.67
2023-04-12T22:22:45.569Z,2.83
2023-04-12T22:25:15.495Z,2.73
2023-04-12T22:27:46.647Z,3.10
2023-04-12T22:30:16.490Z,2.80
2023-04-12T22:32:45.227Z,3.10
2023-04-12T22:35:13.721Z,3.00
2023-04-12T22:37:43.289Z,3.20
2023-04-12T22:40:14.162Z,3.13
2023-04-12T22:42:47.741Z,3.40
2023-04-12T22:45:16.890Z,3.73
2023-04-12T22:47:45.747Z,3.63
2023-04-12T22:50:15.243Z,3.87
2023-04-12T22:52:43.876Z,3.20
2023-04-12T22:55:15.080Z,3.63
2023-04-12T22:57:45.326Z,2.77
2023-04-12T23:00:18.286Z,3.10
2023-04-12T23:02:48.569Z,3.17
2023-04-12T23:05:18.024Z,3.17
2023-04-12T23:07:47.364Z,3.17
2023-04-12T23:10:15.977Z,3.07
2023-04-12T23:12:46.614Z,3.37
2023-04-12T23:15:14.984Z,3.97
2023-04-12T23:17:43.365Z,3.33
2023-04-12T23:20:14.603Z,3.63
2023-04-12T23:22:57.912Z,3.30
2023-04-12T23:25:39.011Z,4.10
2023-04-12T23:28:12.930Z,3.70
2023-04-12T23:30:44.039Z,3.73
2023-04-12T23:33:13.180Z,4.03
2023-04-12T23:35:42.532Z,4.20
2023-04-12T23:38:15.522Z,4.90
2023-04-12T23:40:44.762Z,4.17
2023-04-12T23:43:14.602Z,4.53
2023-04-12T23:45:44.343Z,4.70
2023-04-12T23:48:12.907Z,4.87
2023-04-12T23:50:41.432Z,5.20
2023-04-12T23:53:09.993Z,5.60
2023-04-12T23:55:38.492Z,5.50
2023-04-12T23:58:07.046Z,4.97
